Burlington, Michigan
Current Conditions -  °F | °C
As of 9:13 AM on Thursday 30 Oct 2014 (Local Time) from KRMY Reporting Station
Overcast Overcast  
Wind Chill: 41°   Ceiling: 3900
Heat Index: 41°   Visibility: 10mi
Dew Point: 37°   Wind: 0mph
Humidity: 84%   Direction: NA
Pressure: 30.13"   Gusts: NA
Location:  42.11°N, 85.08°W
Report Text: KRMY 301313Z AUTO 00000KT 10SM OVC039 05/03 A3013 RMK AO2 T00500025
Loading
Personal Weather Stations






























Interactive Weather Map
Tropical Storm Tracking
New forecast layout! Learn more

10-Day Weather Forecast

Advertisements
Track Severe Weather on mobile